Time;durP1;ratioP1;P1;durP2;ratioP2;P2;SDS_P1;SDS_P2;PMS_P1;PMS_P2;Temp;Humidity;BMP_temperature;BMP_pressure;BME280_temperature;BME280_humidity;BME280_pressure;Samples;Min_cycle;Max_cycle;Signal;HPM_P1;HPM_P2
2023/03/14 00:00:48;;;;;;;8.10;3.80;;;;;;;4.56;52.99;100723.23;124558;1099;104246;-72
2023/03/14 00:03:25;;;;;;;8.60;3.60;;;;;;;4.55;52.91;100729.25;124601;1098;104211;-72
2023/03/14 00:05:56;;;;;;;6.40;3.40;;;;;;;4.53;52.56;100730.83;124595;1099;103675;-72
2023/03/14 00:08:27;;;;;;;8.17;3.33;;;;;;;4.52;52.56;100726.45;124582;1099;104191;-72
2023/03/14 00:10:59;;;;;;;6.03;3.20;;;;;;;4.51;52.14;100732.45;124571;1099;104255;-72
2023/03/14 00:13:30;;;;;;;5.97;3.40;;;;;;;4.50;52.19;100739.36;124554;1099;104239;-72
2023/03/14 00:16:06;;;;;;;9.87;3.50;;;;;;;4.48;52.00;100740.94;124559;1099;104169;-71
2023/03/14 00:18:38;;;;;;;7.53;3.20;;;;;;;4.46;52.21;100747.74;125866;1098;102454;-72
2023/03/14 00:21:11;;;;;;;7.23;3.33;;;;;;;4.47;51.58;100748.63;124701;1098;101926;-72
2023/03/14 00:23:44;;;;;;;8.20;3.27;;;;;;;4.44;53.40;100741.56;124598;1099;104214;-72
2023/03/14 00:26:18;;;;;;;8.50;3.87;;;;;;;4.42;52.50;100742.25;124511;1099;102540;-72
2023/03/14 00:28:52;;;;;;;8.10;3.33;;;;;;;4.40;51.95;100741.27;124637;1099;104248;-72
2023/03/14 00:31:23;;;;;;;6.43;3.13;;;;;;;4.38;52.53;100728.17;124539;1098;104201;-72
2023/03/14 00:33:56;;;;;;;10.30;3.53;;;;;;;4.35;52.21;100722.78;124591;1099;104245;-72
2023/03/14 00:36:27;;;;;;;6.50;3.40;;;;;;;4.33;52.02;100724.36;124516;1099;101934;-73
2023/03/14 00:38:58;;;;;;;7.70;3.50;;;;;;;4.32;52.20;100722.59;124655;1099;104286;-73
2023/03/14 00:41:29;;;;;;;7.57;3.53;;;;;;;4.30;52.60;100718.97;124594;1099;104201;-73
2023/03/14 00:44:01;;;;;;;8.13;3.70;;;;;;;4.27;52.62;100717.09;124564;1099;104200;-72
2023/03/14 00:46:32;;;;;;;7.00;3.20;;;;;;;4.25;52.37;100708.28;124571;1099;104245;-73
2023/03/14 00:49:03;;;;;;;10.17;3.90;;;;;;;4.24;52.76;100708.18;124634;1098;102158;-72
2023/03/14 00:51:35;;;;;;;8.15;3.40;;;;;;;4.24;53.02;100700.39;124561;1099;102467;-72
2023/03/14 00:54:06;;;;;;;6.73;3.43;;;;;;;4.22;52.75;100705.48;124579;1098;104242;-71
2023/03/14 00:56:37;;;;;;;8.17;3.63;;;;;;;4.21;53.00;100700.22;124610;1098;102757;-72
2023/03/14 00:59:08;;;;;;;6.40;3.20;;;;;;;4.19;52.79;100692.33;124547;1099;104178;-72
2023/03/14 01:01:41;;;;;;;6.73;3.67;;;;;;;4.19;52.43;100691.41;124128;1099;102298;-73
2023/03/14 01:04:13;;;;;;;9.17;3.27;;;;;;;4.17;52.77;100695.62;124553;1099;104176;-72
2023/03/14 01:06:44;;;;;;;8.90;3.70;;;;;;;4.16;52.96;100696.41;124581;1099;104175;-72
2023/03/14 01:09:19;;;;;;;12.93;3.70;;;;;;;4.14;52.67;100686.84;124538;1098;102785;-72
2023/03/14 01:11:50;;;;;;;7.17;3.50;;;;;;;4.12;53.03;100682.33;124571;1098;104245;-72
2023/03/14 01:14:22;;;;;;;10.73;4.07;;;;;;;4.11;53.15;100685.72;124537;1099;102333;-72
2023/03/14 01:16:53;;;;;;;7.17;3.53;;;;;;;4.09;53.14;100685.63;124539;1098;104300;-72
2023/03/14 01:19:24;;;;;;;8.30;3.90;;;;;;;4.08;52.93;100675.13;124581;1099;102058;-72
2023/03/14 01:21:56;;;;;;;6.70;3.63;;;;;;;4.08;53.10;100667.34;124546;1099;104211;-72
2023/03/14 01:24:27;;;;;;;6.93;3.67;;;;;;;4.06;54.33;100669.84;124500;1099;102823;-72
2023/03/14 01:26:58;;;;;;;8.13;3.50;;;;;;;4.05;53.68;100664.55;124580;1099;104249;-72
2023/03/14 01:29:30;;;;;;;9.97;3.43;;;;;;;4.03;53.29;100651.47;124499;1098;104217;-72
2023/03/14 01:32:01;;;;;;;9.17;3.67;;;;;;;4.03;54.12;100663.56;124818;1099;104252;-73
2023/03/14 01:34:32;;;;;;;8.53;3.50;;;;;;;4.02;53.56;100653.97;124556;1099;104233;-72
2023/03/14 01:37:04;;;;;;;8.03;3.70;;;;;;;4.01;53.78;100654.78;124859;1099;104172;-73
2023/03/14 01:39:36;;;;;;;9.13;3.70;;;;;;;4.00;53.39;100658.17;124515;1099;104335;-73
2023/03/14 01:42:07;;;;;;;8.17;3.73;;;;;;;3.98;53.95;100649.39;124462;1099;104273;-72
2023/03/14 01:44:54;;;;;;;9.07;3.40;;;;;;;3.98;54.17;100645.09;124527;1099;103653;-71
2023/03/14 01:47:26;;;;;;;8.17;3.63;;;;;;;3.96;54.35;100642.39;124603;1099;104240;-71
2023/03/14 01:50:02;;;;;;;7.23;3.30;;;;;;;3.95;54.73;100650.97;124621;1099;104220;-72
2023/03/14 01:52:37;;;;;;;7.50;3.80;;;;;;;3.94;54.07;100651.80;124499;1099;104272;-73
2023/03/14 01:55:14;;;;;;;10.50;3.80;;;;;;;3.94;53.90;100648.27;124491;1099;101885;-73
2023/03/14 01:57:48;;;;;;;7.60;3.60;;;;;;;3.91;53.35;100649.00;124548;1098;104185;-72
2023/03/14 02:00:22;;;;;;;7.63;3.43;;;;;;;3.92;53.99;100642.09;124517;1099;104239;-72
2023/03/14 02:02:56;;;;;;;5.20;3.35;;;;;;;3.91;54.29;100630.83;124527;1099;104241;-72
2023/03/14 02:05:33;;;;;;;7.93;3.50;;;;;;;3.90;54.55;100629.02;124529;1098;104245;-72
2023/03/14 02:08:11;;;;;;;9.23;3.70;;;;;;;3.90;54.20;100631.61;124492;1099;102128;-72
2023/03/14 02:10:50;;;;;;;12.50;3.37;;;;;;;3.89;54.28;100621.13;124547;1099;101842;-72
2023/03/14 02:13:26;;;;;;;6.93;3.37;;;;;;;3.89;54.89;100609.03;124567;1098;104270;-71
2023/03/14 02:16:31;;;;;;;9.10;3.73;;;;;;;3.90;54.21;100616.03;124288;1099;104267;-72
2023/03/14 02:19:33;;;;;;;8.73;3.60;;;;;;;3.90;54.02;100613.44;124547;1099;117875;-72
2023/03/14 02:22:17;;;;;;;5.97;3.53;;;;;;;3.89;54.69;100619.42;124927;1099;102265;-72
2023/03/14 02:25:04;;;;;;;8.83;3.87;;;;;;;3.88;54.87;100624.52;124584;1099;104239;-72
2023/03/14 02:27:35;;;;;;;7.23;3.53;;;;;;;3.85;53.50;100619.13;124589;1098;104176;-73
2023/03/14 02:30:10;;;;;;;7.67;3.43;;;;;;;3.85;54.48;100612.26;124510;1099;104181;-72
2023/03/14 02:32:47;;;;;;;9.33;3.70;;;;;;;3.84;53.98;100614.75;124502;1099;104424;-72
2023/03/14 02:35:22;;;;;;;8.93;3.60;;;;;;;3.82;54.68;100617.25;124573;1099;104488;-71
2023/03/14 02:37:58;;;;;;;6.10;3.67;;;;;;;3.82;53.76;100616.33;124178;1099;104236;-73
2023/03/14 02:40:30;;;;;;;7.50;3.43;;;;;;;3.80;54.25;100616.23;124184;1099;104303;-73
2023/03/14 02:43:02;;;;;;;7.93;3.90;;;;;;;3.80;54.66;100620.53;124146;1099;103650;-72
2023/03/14 02:45:44;;;;;;;8.20;3.50;;;;;;;3.79;54.62;100622.24;124586;1099;104277;-72
2023/03/14 02:48:20;;;;;;;9.33;3.67;;;;;;;3.79;54.13;100627.44;124118;1099;104295;-72
2023/03/14 02:50:54;;;;;;;10.00;3.43;;;;;;;3.78;54.09;100630.82;124580;1098;104207;-72
2023/03/14 02:53:29;;;;;;;9.23;4.20;;;;;;;3.78;54.21;100636.01;124615;1099;104245;-71
2023/03/14 02:56:02;;;;;;;11.07;3.93;;;;;;;3.79;54.27;100640.41;124538;1098;104332;-71
2023/03/14 02:58:33;;;;;;;6.70;3.67;;;;;;;3.78;53.90;100636.89;124545;1099;104341;-72
2023/03/14 03:01:13;;;;;;;6.80;3.65;;;;;;;3.78;54.53;100628.22;124511;1099;104063;-72
2023/03/14 03:03:44;;;;;;;9.60;3.50;;;;;;;3.79;54.36;100630.03;124567;1099;104189;-71
2023/03/14 03:06:17;;;;;;;6.90;3.50;;;;;;;3.78;53.87;100636.01;124553;1099;104328;-72
2023/03/14 03:08:48;;;;;;;10.07;3.90;;;;;;;3.79;53.55;100637.81;124590;1099;104252;-71
2023/03/14 03:11:20;;;;;;;8.93;3.40;;;;;;;3.79;53.36;100637.81;124522;1099;104336;-71
2023/03/14 03:13:52;;;;;;;8.60;3.57;;;;;;;3.81;53.65;100638.80;124490;1099;104306;-71
2023/03/14 03:16:23;;;;;;;8.00;3.50;;;;;;;3.82;53.88;100640.61;124495;1099;104220;-72
2023/03/14 03:18:55;;;;;;;7.20;3.13;;;;;;;3.84;53.01;100646.80;124544;1099;104233;-71
2023/03/14 03:21:26;;;;;;;8.70;3.10;;;;;;;3.86;53.09;100639.10;124569;1099;104184;-71
2023/03/14 03:23:57;;;;;;;7.30;3.20;;;;;;;3.86;53.01;100639.99;125874;1098;101953;-71
2023/03/14 03:26:29;;;;;;;10.97;3.30;;;;;;;3.88;52.66;100642.69;124511;1099;104236;-72
2023/03/14 03:29:00;;;;;;;5.53;3.13;;;;;;;3.91;52.57;100637.69;124534;1099;104404;-72
2023/03/14 03:31:32;;;;;;;6.90;3.40;;;;;;;3.92;52.62;100639.50;124555;1099;104217;-71
2023/03/14 03:34:03;;;;;;;5.43;3.10;;;;;;;3.94;52.51;100640.48;124616;1099;104256;-72
2023/03/14 03:36:35;;;;;;;5.87;3.07;;;;;;;3.96;51.81;100636.31;124601;1099;102424;-72
2023/03/14 03:39:06;;;;;;;4.97;3.40;;;;;;;4.00;51.82;100642.59;124568;1099;102690;-71
2023/03/14 03:41:37;;;;;;;6.67;3.00;;;;;;;4.01;52.38;100639.20;124154;1099;104310;-73
2023/03/14 03:44:09;;;;;;;6.60;3.00;;;;;;;4.03;51.47;100637.59;124143;1099;104328;-71
2023/03/14 03:46:40;;;;;;;4.10;2.90;;;;;;;4.03;52.38;100646.27;124150;1099;102801;-72
2023/03/14 03:49:12;;;;;;;6.10;2.77;;;;;;;4.04;51.75;100634.21;124597;1099;104400;-72
2023/03/14 03:51:44;;;;;;;8.83;3.07;;;;;;;4.05;51.32;100630.79;124548;1099;104290;-72
2023/03/14 03:54:15;;;;;;;20.83;4.50;;;;;;;4.05;51.30;100638.58;124485;1099;104188;-72
2023/03/14 03:56:46;;;;;;;10.23;3.43;;;;;;;4.03;52.46;100641.08;124406;1099;104238;-72
2023/03/14 03:59:18;;;;;;;12.40;3.40;;;;;;;4.02;51.75;100643.58;124451;1099;101894;-72
2023/03/14 04:01:50;;;;;;;8.50;3.07;;;;;;;4.00;51.14;100640.00;124525;1098;103502;-72
2023/03/14 04:04:21;;;;;;;5.50;2.87;;;;;;;3.98;51.75;100633.81;124530;1099;104209;-72
2023/03/14 04:06:53;;;;;;;7.40;3.33;;;;;;;3.98;50.82;100641.61;124600;1099;104168;-72
2023/03/14 04:09:24;;;;;;;5.17;3.17;;;;;;;4.00;51.36;100642.59;124526;1099;104262;-72
2023/03/14 04:12:24;;;;;;;4.60;2.83;;;;;;;4.00;51.07;100642.59;124512;1099;104322;-72
2023/03/14 04:15:02;;;;;;;7.50;3.00;;;;;;;4.01;51.12;100640.09;124614;1098;104172;-73
2023/03/14 04:17:36;;;;;;;3.70;2.70;;;;;;;4.02;51.09;100641.91;124626;1099;104178;-73
2023/03/14 04:20:11;;;;;;;7.90;2.90;;;;;;;4.04;50.47;100648.08;124426;1099;104249;-73
2023/03/14 04:22:42;;;;;;;3.67;2.70;;;;;;;4.04;50.99;100634.21;124216;1099;102088;-72
2023/03/14 04:25:16;;;;;;;5.60;3.00;;;;;;;4.03;51.09;100642.79;124132;1099;104297;-71
2023/03/14 04:27:51;;;;;;;5.50;3.00;;;;;;;4.02;50.81;100643.58;125849;1099;103751;-71
2023/03/14 04:30:27;;;;;;;10.20;2.97;;;;;;;4.00;51.22;100637.40;124601;1099;104092;-72
2023/03/14 04:33:02;;;;;;;6.27;3.27;;;;;;;3.98;51.00;100639.89;125885;1097;101830;-72
2023/03/14 04:35:35;;;;;;;5.10;3.03;;;;;;;3.97;50.92;100635.49;124174;1099;104294;-72
2023/03/14 04:38:12;;;;;;;8.83;3.50;;;;;;;3.96;51.62;100644.10;124630;1098;101932;-73
2023/03/14 04:40:45;;;;;;;5.25;2.90;;;;;;;3.94;50.97;100638.81;124548;1099;104316;-72
2023/03/14 04:43:18;;;;;;;6.07;2.77;;;;;;;3.93;50.49;100625.73;125651;1099;104310;-72
2023/03/14 04:45:54;;;;;;;6.17;3.00;;;;;;;3.94;51.08;100631.02;124607;1099;104092;-73
2023/03/14 04:48:26;;;;;;;8.90;3.10;;;;;;;3.95;51.45;100624.12;124608;1099;102067;-71
2023/03/14 04:50:57;;;;;;;6.70;3.10;;;;;;;3.96;51.95;100633.72;124104;1099;104271;-72
2023/03/14 04:53:29;;;;;;;6.20;3.03;;;;;;;3.97;51.28;100619.91;124586;1099;101982;-70
2023/03/14 04:56:02;;;;;;;10.10;3.35;;;;;;;3.99;51.03;100625.20;124173;1099;104345;-71
2023/03/14 04:58:39;;;;;;;10.93;3.00;;;;;;;4.02;51.19;100618.53;124233;1099;104267;-71
2023/03/14 05:01:11;;;;;;;9.10;3.30;;;;;;;4.05;51.25;100617.80;124135;1099;104258;-71
2023/03/14 05:04:05;;;;;;;5.50;2.93;;;;;;;4.10;51.53;100619.91;124585;1098;104176;-71
2023/03/14 05:06:52;;;;;;;7.10;2.75;;;;;;;4.14;51.14;100621.91;124459;1099;104166;-71
2023/03/14 05:09:46;;;;;;;5.60;2.80;;;;;;;4.22;51.22;100621.47;124522;1099;104297;-71
2023/03/14 05:12:37;;;;;;;7.93;2.93;;;;;;;4.27;51.40;100628.77;124567;1099;104240;-71
2023/03/14 05:15:27;;;;;;;5.73;2.90;;;;;;;4.33;51.27;100633.42;124497;1099;104163;-71
2023/03/14 05:18:17;;;;;;;8.07;3.00;;;;;;;4.42;51.05;100640.91;125605;1099;101804;-72
2023/03/14 05:21:00;;;;;;;5.03;2.90;;;;;;;4.47;50.99;100644.69;124529;1099;104224;-70
2023/03/14 05:23:51;;;;;;;10.23;3.23;;;;;;;4.55;51.05;100640.89;125598;1098;104357;-71
2023/03/14 05:26:52;;;;;;;5.57;2.77;;;;;;;4.62;51.22;100636.95;124109;1102;102916;-72
2023/03/14 05:29:38;;;;;;;7.13;3.10;;;;;;;4.69;50.51;100641.74;124495;1099;104182;-74
2023/03/14 05:32:28;;;;;;;7.77;3.23;;;;;;;4.77;50.63;100637.91;124590;1099;104236;-71
2023/03/14 05:35:18;;;;;;;5.77;2.93;;;;;;;4.86;50.60;100634.94;124540;1098;104239;-71
2023/03/14 05:38:10;;;;;;;6.20;2.93;;;;;;;4.93;50.73;100644.03;124130;1099;104235;-72
2023/03/14 05:40:52;;;;;;;7.47;3.20;;;;;;;4.98;50.70;100634.80;124131;1099;104237;-73
2023/03/14 05:43:42;;;;;;;7.50;3.00;;;;;;;5.10;50.83;100639.85;124583;1099;110827;-73
2023/03/14 05:46:40;;;;;;;13.20;3.33;;;;;;;5.18;51.33;100633.39;124166;1099;101875;-73
2023/03/14 05:49:29;;;;;;;10.87;3.30;;;;;;;5.25;51.30;100632.97;124174;1099;104175;-73
2023/03/14 05:52:26;;;;;;;6.93;3.37;;;;;;;5.40;51.14;100640.75;124363;1099;104692;-71
2023/03/14 05:55:14;;;;;;;10.80;3.03;;;;;;;5.49;51.30;100635.20;124165;1099;104172;-72
2023/03/14 05:58:08;;;;;;;9.18;3.10;;;;;;;5.58;50.36;100628.81;124514;1099;104277;-72
2023/03/14 06:00:58;;;;;;;12.20;4.43;;;;;;;5.66;50.98;100625.77;124560;1099;101858;-72
2023/03/14 06:03:43;;;;;;;8.80;3.47;;;;;;;5.74;50.73;100621.89;124129;1099;104243;-73
2023/03/14 06:06:16;;;;;;;10.83;3.47;;;;;;;5.82;50.67;100620.60;124512;1099;104271;-72
2023/03/14 06:08:48;;;;;;;9.20;3.37;;;;;;;5.89;49.83;100614.94;125079;1099;103718;-73
2023/03/14 06:11:19;;;;;;;6.80;3.37;;;;;;;5.99;50.68;100615.50;124533;1099;104175;-71
2023/03/14 06:13:51;;;;;;;7.17;3.07;;;;;;;6.06;50.57;100607.19;124117;1099;102821;-72
2023/03/14 06:16:23;;;;;;;8.33;3.57;;;;;;;6.17;50.73;100613.91;124540;1098;104223;-73
2023/03/14 06:18:57;;;;;;;9.58;3.67;;;;;;;6.26;50.28;100617.03;124517;1099;104248;-72
2023/03/14 06:21:29;;;;;;;10.53;3.50;;;;;;;6.36;50.41;100607.07;124542;1098;104255;-71
2023/03/14 06:24:02;;;;;;;8.30;3.80;;;;;;;6.47;50.08;100611.17;124160;1099;104667;-72
2023/03/14 06:26:34;;;;;;;7.87;3.40;;;;;;;6.55;50.00;100609.87;124588;1098;103568;-71
2023/03/14 06:29:06;;;;;;;7.27;3.10;;;;;;;6.68;49.83;100610.52;124658;1099;104306;-72
2023/03/14 06:31:39;;;;;;;6.60;3.05;;;;;;;6.78;49.37;100598.05;124639;1099;104272;-71
2023/03/14 06:34:11;;;;;;;6.33;2.90;;;;;;;6.87;49.86;100605.45;124204;1099;104325;-72
2023/03/14 06:36:45;;;;;;;11.17;3.80;;;;;;;6.98;49.85;100606.00;124529;1099;104169;-72
2023/03/14 06:39:19;;;;;;;9.00;3.40;;;;;;;7.12;49.82;100598.89;124604;1099;104334;-73
2023/03/14 06:41:51;;;;;;;8.23;3.43;;;;;;;7.26;49.56;100604.81;124205;1099;102410;-74
2023/03/14 06:44:23;;;;;;;8.05;3.65;;;;;;;7.41;49.41;100605.59;124576;1099;104310;-72
2023/03/14 06:46:55;;;;;;;9.77;3.37;;;;;;;7.50;48.63;100597.33;124594;1099;104366;-74
2023/03/14 06:49:26;;;;;;;4.87;2.87;;;;;;;7.62;47.59;100590.10;124750;1099;103647;-73
2023/03/14 06:52:00;;;;;;;7.37;3.47;;;;;;;7.74;48.28;100582.86;124658;1099;104163;-74
2023/03/14 06:54:31;;;;;;;8.90;3.60;;;;;;;7.85;48.02;100579.85;125092;1099;104424;-74
2023/03/14 06:57:03;;;;;;;9.30;3.23;;;;;;;7.98;47.87;100583.94;124845;1103;104217;-75
2023/03/14 06:59:40;;;;;;;8.40;3.23;;;;;;;8.11;48.04;100575.86;124936;1099;104614;-74
2023/03/14 07:02:13;;;;;;;6.80;3.27;;;;;;;8.27;47.43;100572.23;124780;1099;104278;-74
2023/03/14 07:04:44;;;;;;;10.83;3.00;;;;;;;8.43;47.39;100582.62;124691;1099;104160;-74
2023/03/14 07:07:19;;;;;;;7.03;3.27;;;;;;;8.55;46.72;100569.18;124765;1099;102232;-76
2023/03/14 07:09:51;;;;;;;5.80;3.07;;;;;;;8.69;45.88;100569.80;124695;1099;104354;-76
2023/03/14 07:12:24;;;;;;;7.05;3.10;;;;;;;8.85;46.67;100570.48;124583;1099;101945;-75
2023/03/14 07:14:58;;;;;;;4.63;2.57;;;;;;;8.97;46.19;100568.39;124903;1099;104185;-74
2023/03/14 07:17:35;;;;;;;8.20;3.03;;;;;;;9.06;45.44;100560.94;124876;1099;104354;-77
2023/03/14 07:20:12;;;;;;;5.70;3.00;;;;;;;9.16;45.41;100567.45;125248;1099;104332;-75
2023/03/14 07:22:44;;;;;;;9.00;2.97;;;;;;;9.26;45.29;100560.91;124542;1099;102446;-74
2023/03/14 07:25:19;;;;;;;5.73;2.50;;;;;;;9.33;44.22;100561.22;124669;1099;101999;-75
2023/03/14 07:27:54;;;;;;;8.20;2.90;;;;;;;9.42;43.86;100552.83;124758;1099;104227;-75
2023/03/14 07:30:30;;;;;;;5.17;2.83;;;;;;;9.57;43.22;100543.80;124903;1099;104188;-79
2023/03/14 07:33:03;;;;;;;9.50;3.30;;;;;;;9.69;43.52;100547.83;125290;1099;103181;-72
2023/03/14 07:35:38;;;;;;;11.70;2.80;;;;;;;9.85;43.74;100543.20;124449;1099;104287;-76
2023/03/14 07:38:10;;;;;;;5.00;2.60;;;;;;;9.92;41.51;100539.97;124759;1099;102547;-77
2023/03/14 07:40:49;;;;;;;5.70;2.13;;;;;;;10.01;40.33;100532.46;124937;1099;104217;-76
2023/03/14 07:43:29;;;;;;;5.87;2.50;;;;;;;10.13;39.28;100549.48;126087;1099;104204;-76
2023/03/14 07:46:05;;;;;;;2.87;2.03;;;;;;;10.20;40.09;100544.53;125096;1099;118455;-75
2023/03/14 07:51:28;;;;;;;5.20;2.20;;;;;;;10.31;38.94;100523.95;124786;1099;101952;-75
2023/03/14 07:54:06;;;;;;;4.93;2.40;;;;;;;10.38;38.63;100538.25;124834;1099;104185;-73
2023/03/14 07:57:04;;;;;;;4.60;1.93;;;;;;;10.43;34.78;100524.45;124927;1099;101922;-76
2023/03/14 08:00:10;;;;;;;2.70;1.50;;;;;;;10.41;32.47;100513.02;126028;1102;102476;-78
2023/03/14 08:06:35;;;;;;;2.67;1.80;;;;;;;10.66;33.13;100521.77;125034;1099;104194;-75
2023/03/14 08:09:07;;;;;;;13.43;2.67;;;;;;;10.77;34.77;100527.41;125888;1099;102375;-74
2023/03/14 08:11:39;;;;;;;6.00;2.00;;;;;;;10.85;33.74;100522.42;124929;1099;101985;-75
2023/03/14 08:14:12;;;;;;;3.67;1.73;;;;;;;10.92;34.67;100520.07;124972;1099;104248;-73
2023/03/14 08:16:44;;;;;;;3.13;1.80;;;;;;;10.99;32.96;100521.16;125220;1099;103424;-76
2023/03/14 08:22:03;;;;;;;4.03;1.70;;;;;;;11.16;33.14;100508.61;124872;1099;104392;-75
2023/03/14 08:24:37;;;;;;;4.40;2.00;;;;;;;11.29;32.72;100496.77;124765;1099;101833;-75
2023/03/14 08:27:09;;;;;;;;;;;;;;;11.36;30.35;100501.39;124907;1099;104160;-76
2023/03/14 08:29:41;;;;;;;8.30;2.13;;;;;;;11.46;31.55;100485.05;126182;1098;102008;-74
2023/03/14 08:32:13;;;;;;;3.33;1.73;;;;;;;11.56;31.48;100477.47;125046;1099;104238;-74
2023/03/14 08:34:46;;;;;;;1.70;1.47;;;;;;;11.67;33.70;100486.56;124553;1099;104242;-72
2023/03/14 08:37:19;;;;;;;10.93;2.50;;;;;;;11.77;30.84;100477.25;124908;1099;104264;-76
2023/03/14 08:39:51;;;;;;;4.30;2.00;;;;;;;11.88;32.67;100476.70;124676;1099;104398;-73
2023/03/14 08:42:22;;;;;;;6.23;2.27;;;;;;;12.01;32.84;100479.73;124734;1099;104079;-75
2023/03/14 08:44:59;;;;;;;3.37;2.10;;;;;;;12.18;32.88;100478.48;125017;1099;104211;-75
2023/03/14 08:47:31;;;;;;;6.00;2.30;;;;;;;12.25;32.10;100478.66;124906;1099;101877;-75
2023/03/14 08:50:03;;;;;;;5.60;1.93;;;;;;;12.30;32.17;100456.02;125221;1099;104284;-76
2023/03/14 08:52:37;;;;;;;7.23;2.40;;;;;;;12.39;31.27;100458.91;124838;1099;104230;-74
2023/03/14 08:55:12;;;;;;;3.00;1.83;;;;;;;12.47;31.86;100465.27;124413;1099;104140;-74
2023/03/14 08:57:44;;;;;;;6.33;2.30;;;;;;;12.58;32.03;100457.66;124535;1099;104296;-72
2023/03/14 09:00:18;;;;;;;;;;;;;;;12.58;28.45;100458.55;125325;1099;104252;-75
2023/03/14 09:02:50;;;;;;;5.40;1.90;;;;;;;12.65;27.58;100445.55;125034;1099;101980;-76
2023/03/14 09:05:27;;;;;;;2.60;1.40;;;;;;;12.55;27.11;100413.72;124893;1099;102208;-74
2023/03/14 09:08:01;;;;;;;3.37;1.70;;;;;;;12.70;30.04;100443.92;124993;1099;104162;-76
2023/03/14 09:10:33;;;;;;;2.77;1.47;;;;;;;12.77;30.24;100438.84;125185;1098;104057;-74
2023/03/14 09:13:05;;;;;;;3.37;1.73;;;;;;;12.88;30.10;100436.49;124982;1099;104166;-74
2023/03/14 09:15:37;;;;;;;2.27;1.83;;;;;;;13.00;30.25;100440.31;125332;1099;101961;-76
2023/03/14 09:18:08;;;;;;;5.93;2.20;;;;;;;13.10;28.90;100432.67;125140;1099;104338;-76
2023/03/14 09:20:41;;;;;;;2.53;1.73;;;;;;;13.17;29.07;100436.34;126193;1098;102719;-73
2023/03/14 09:23:13;;;;;;;11.43;1.87;;;;;;;13.16;28.84;100431.91;124881;1099;104268;-73
2023/03/14 09:25:44;;;;;;;2.77;1.53;;;;;;;13.21;27.73;100411.82;124906;1099;104226;-76
2023/03/14 09:28:16;;;;;;;5.57;2.00;;;;;;;13.38;29.25;100409.61;125067;1099;102663;-75
2023/03/14 09:30:49;;;;;;;4.30;2.03;;;;;;;13.46;29.13;100410.70;124926;1099;101992;-72
2023/03/14 09:33:21;;;;;;;3.85;1.90;;;;;;;13.50;27.96;100382.66;124261;1099;102370;-73
2023/03/14 09:35:53;;;;;;;2.17;1.43;;;;;;;13.60;28.78;100415.38;124694;1099;104268;-73
2023/03/14 09:38:29;;;;;;;13.43;3.10;;;;;;;13.72;29.59;100412.12;124647;1099;104242;-72
2023/03/14 09:41:13;;;;;;;6.83;2.03;;;;;;;13.72;27.28;100385.75;124652;1099;101879;-73
2023/03/14 09:43:47;;;;;;;6.97;2.17;;;;;;;13.86;27.63;100397.47;124272;1099;103768;-73
2023/03/14 09:46:19;;;;;;;6.67;1.90;;;;;;;13.92;27.30;100388.80;124630;1098;104261;-73
2023/03/14 09:48:51;;;;;;;7.73;1.90;;;;;;;14.02;26.56;100383.75;124648;1099;104672;-74
2023/03/14 09:51:23;;;;;;;7.05;3.10;;;;;;;14.11;28.29;100383.02;124270;1099;104249;-74
2023/03/14 09:54:05;;;;;;;4.97;1.80;;;;;;;14.25;26.73;100393.84;124766;1098;104191;-75
2023/03/14 09:56:40;;;;;;;6.83;1.70;;;;;;;14.26;25.54;100387.72;124820;1099;104258;-75
2023/03/14 09:59:15;;;;;;;3.43;1.70;;;;;;;14.34;26.91;100372.90;124457;1099;104328;-73
2023/03/14 10:01:48;;;;;;;2.80;1.60;;;;;;;14.39;25.31;100389.70;124655;1099;101935;-73
2023/03/14 10:04:25;;;;;;;3.33;2.10;;;;;;;14.41;26.42;100376.53;124644;1099;104175;-73
2023/03/14 10:06:58;;;;;;;5.37;2.10;;;;;;;14.39;27.37;100387.06;124666;1099;102546;-76
2023/03/14 10:09:35;;;;;;;7.27;2.43;;;;;;;14.36;27.32;100379.09;124801;1099;104152;-75
2023/03/14 10:12:11;;;;;;;3.13;1.67;;;;;;;14.20;25.29;100363.84;124768;1099;104358;-75
2023/03/14 10:14:50;;;;;;;5.92;1.90;;;;;;;14.10;26.79;100369.80;125009;1099;104296;-74
2023/03/14 10:17:24;;;;;;;6.77;2.00;;;;;;;13.98;26.88;100366.06;124731;1099;101842;-73
2023/03/14 10:19:59;;;;;;;2.27;1.50;;;;;;;13.90;26.76;100356.21;124810;1099;101890;-77
2023/03/14 10:22:31;;;;;;;;;;;;;;;13.79;25.29;100353.36;124824;1099;104159;-74
2023/03/14 10:25:09;;;;;;;6.10;2.30;;;;;;;13.75;27.19;100354.17;124901;1099;101846;-75
2023/03/14 10:27:45;;;;;;;3.03;1.80;;;;;;;13.71;26.20;100340.02;125880;1099;101722;-76
2023/03/14 10:30:43;;;;;;;6.67;1.70;;;;;;;13.62;26.30;100311.73;124811;1099;104232;-76
2023/03/14 10:33:26;;;;;;;3.03;2.07;;;;;;;13.59;27.43;100327.48;125012;1099;104245;-76
2023/03/14 10:35:59;;;;;;;2.80;1.80;;;;;;;13.54;26.21;100308.06;124957;1099;104153;-77
2023/03/14 10:38:39;;;;;;;5.20;1.80;;;;;;;13.54;26.83;100323.88;124993;1098;104169;-76
2023/03/14 10:41:21;;;;;;;4.83;1.92;;;;;;;13.53;26.78;100315.94;124891;1099;104169;-76
2023/03/14 10:44:18;;;;;;;5.20;2.10;;;;;;;13.57;27.49;100317.77;124793;1099;104156;-76
2023/03/14 10:47:04;;;;;;;2.67;2.10;;;;;;;13.59;27.51;100316.07;124651;1099;104175;-77
2023/03/14 10:49:44;;;;;;;8.20;2.20;;;;;;;13.62;27.48;100297.67;124803;1098;105576;-75
2023/03/14 10:52:31;;;;;;;6.27;2.03;;;;;;;13.65;27.22;100298.62;124766;1099;104207;-76
2023/03/14 10:55:12;;;;;;;5.97;2.30;;;;;;;13.61;27.77;100288.86;124356;1099;104262;-76
2023/03/14 10:57:47;;;;;;;3.50;2.13;;;;;;;13.73;26.56;100274.13;124759;1099;101961;-73
2023/03/14 11:00:21;;;;;;;5.90;2.10;;;;;;;13.88;27.82;100277.05;124849;1099;102767;-77
2023/03/14 11:03:14;;;;;;;5.10;2.27;;;;;;;14.06;26.96;100263.33;124495;1099;104256;-76
2023/03/14 11:05:56;;;;;;;4.90;2.10;;;;;;;14.11;26.15;100263.41;125106;1099;104192;-79
2023/03/14 11:08:43;;;;;;;5.03;2.10;;;;;;;14.19;27.70;100248.59;124944;1099;104277;-75
2023/03/14 11:11:22;;;;;;;7.03;2.10;;;;;;;14.28;27.60;100237.31;124793;1099;104198;-76
2023/03/14 11:14:06;;;;;;;6.63;2.20;;;;;;;14.39;26.43;100235.72;125009;1099;104207;-74
2023/03/14 11:16:53;;;;;;;25.50;3.40;;;;;;;14.46;27.58;100234.05;124641;1099;104208;-75
2023/03/14 11:19:55;;;;;;;7.17;2.33;;;;;;;14.58;27.85;100234.25;124705;1099;104393;-71
2023/03/14 11:22:41;;;;;;;5.40;2.60;;;;;;;14.72;27.24;100216.00;124667;1099;104274;-77
2023/03/14 11:25:33;;;;;;;21.67;3.13;;;;;;;14.64;25.61;100197.41;124800;1098;104246;-75
2023/03/14 11:28:18;;;;;;;7.20;2.40;;;;;;;14.65;26.63;100204.47;126182;1098;101881;-77
2023/03/14 11:30:54;;;;;;;4.33;1.97;;;;;;;14.65;26.88;100206.23;124889;1099;101925;-73
2023/03/14 11:33:30;;;;;;;4.50;1.80;;;;;;;14.66;26.63;100194.78;124871;1099;101964;-74
2023/03/14 11:36:07;;;;;;;2.47;1.83;;;;;;;14.62;26.30;100187.70;124786;1099;104214;-72
2023/03/14 11:38:48;;;;;;;4.03;1.97;;;;;;;14.62;26.11;100179.78;124665;1099;104245;-75
2023/03/14 11:41:29;;;;;;;7.57;2.43;;;;;;;14.61;26.55;100178.88;124931;1099;104175;-74
2023/03/14 11:44:13;;;;;;;8.23;2.30;;;;;;;14.54;26.09;100171.72;124867;1099;104165;-75
2023/03/14 11:46:58;;;;;;;5.25;1.90;;;;;;;14.47;26.43;100168.08;124759;1098;104447;-74
2023/03/14 11:49:39;;;;;;;7.70;2.00;;;;;;;14.55;26.23;100158.54;124663;1099;104242;-74
2023/03/14 11:52:19;;;;;;;5.53;1.80;;;;;;;14.54;26.02;100145.32;124626;1099;104342;-75
2023/03/14 11:55:02;;;;;;;5.07;1.80;;;;;;;14.49;25.60;100146.98;124793;1099;101884;-75
2023/03/14 11:57:34;;;;;;;3.43;2.00;;;;;;;14.48;26.23;100155.79;124223;1102;104261;-72
2023/03/14 12:00:15;;;;;;;4.83;1.90;;;;;;;14.46;26.41;100147.84;126035;1098;104326;-73
2023/03/14 12:02:54;;;;;;;6.00;2.20;;;;;;;14.46;26.29;100141.66;124884;1099;101909;-74
2023/03/14 12:05:51;;;;;;;13.63;2.50;;;;;;;14.34;25.53;100135.35;124860;1099;102016;-75